Southborough, MA (01745)

1:13 PM EDT on September 02, 2015 (GMT -0400)
Southborough south side | | Change Station
CLOSE
Current Station
Personal Weather Station
Location: Southborough, MA
Elevation: 312 ft
Nearby Weather Stations

Elev 312 ft 42.27 °N, 71.51 °W | Updated 6 minutes ago

Clear
Clear
91.6 °F
Feels Like 99 °F
N
2.2
Wind Variable Wind from NNW

Today
High -- | Low -- °F
--% Chance of Precip.
Yesterday
High -- | Low -- °F
Precip. -- in
6:12 AM 7:18 PM
Waning Gibbous, 79% visible
Pressure 29.96 in
Visibility 10.0 miles
Clouds Clear
Heat Index 99 °F
Dew Point 71 °F
Humidity 52%
Rainfall 0.02 in
Snow Depth Not available.
UV 9 out of 12
Pollen 9.80 out of 12
Air Quality Not available.
Flu Activity Not available.
METAR KBED 021656Z 24009G15KT 10SM CLR 31/17 A2992 RMK AO2 SLP143 T03060167
Pressure 29.96 in
Visibility 10.0 miles
Clouds Clear
Heat Index 99 °F
Dew Point 71 °F
Humidity 52%
Rainfall 0.02 in
Snow Depth Not available.
UV 9 out of 12
Pollen 9.80 out of 12
Air Quality Not available.
Flu Activity Not available.
METAR KBED 021656Z 24009G15KT 10SM CLR 31/17 A2992 RMK AO2 SLP143 T03060167

10-Day Weather Forecast

×

Almanac

Astronomy

Sep. 02, 2015 Rise Set
Actual Time
Civil Twilight
Nautical Twilight
Astronomical Twilight
Moon
Length of Visible Light
Length of Day
Tomorrow will be .
, % of the Moon is Illuminated

Today's Extremes

State Highs State Lows

Community

WunderPhotos

Upload Photos

1,851,785 photos uploaded!

WunderBlogs® & News

Nearby

Air Quality

  Air Quality AQ Index Pollutant
Not available.

Snow Depth

Station Depth Elevation

Earthquake Activity

City Distance Mag. Time & Date
Minimum magnitude displayed is 2.5.

Coastal Water Temperatures

Place Temperature

Stations

Nearby Weather Stations

Station Location Temp. Windchill Dew Point Humidity Wind Precip. Elev Updated Type